Bookmark and Share
Track history (hours):
 

Green Fast

Last reported at 2014-Apr-22 12:30 UTC. Time now 2014-Apr-24 00:10 UTC.
Position N 37°58' E 012°27'.

Length 118 m; draft 6.6 m.

Type: Ship (hazmat cat A). MMSI: 236294000.

NotesDate/timePositionNaut miles runAvg speedWind from/ knotsBaromVisibWave heightAir tempDewpointWater temp
2014-Apr-22 12:30N 37°58' E 012°27'12711.4
2014-Apr-22 01:19N 38°49' E 009°58'1512.0
2014-Apr-22 00:05N 38°55' E 009°41'712.1
2014-Apr-21 23:30N 38°58' E 009°32'1212.4
2014-Apr-21 22:32N 39°03' E 009°18'1111.6
2014-Apr-21 21:34N 39°09' E 009°06'4 3.8
2014-Apr-21 20:31N 39°13' E 009°04'0 0.0
2014-Apr-21 19:31N 39°13' E 009°04'0 0.0
2014-Apr-21 18:31N 39°13' E 009°04'0 0.0
2014-Apr-21 17:31N 39°13' E 009°04'0 0.0
2014-Apr-21 16:31N 39°13' E 009°04'0 0.0
2014-Apr-21 15:30N 39°13' E 009°04'0 0.0
2014-Apr-21 14:33N 39°13' E 009°04'0 0.0
2014-Apr-21 13:32N 39°13' E 009°04'0 0.0
2014-Apr-21 12:33N 39°13' E 009°04'0 0.0
2014-Apr-21 11:33N 39°13' E 009°04'0 0.0
2014-Apr-21 10:33N 39°13' E 009°04'0 0.0
2014-Apr-21 09:33N 39°13' E 009°04'3 2.8
2014-Apr-21 08:32N 39°10' E 009°06'0 0.2
2014-Apr-21 07:31N 39°11' E 009°06'0 0.1
2014-Apr-21 06:31N 39°10' E 009°06'0 0.1
2014-Apr-21 05:31N 39°10' E 009°06'0 0.1
2014-Apr-21 04:31N 39°10' E 009°06'0 0.1
2014-Apr-21 03:31N 39°10' E 009°06'0 0.0
2014-Apr-21 02:31N 39°10' E 009°06'0 0.0
2014-Apr-21 01:31N 39°10' E 009°06'0 0.0
2014-Apr-21 00:31N 39°10' E 009°06'0 0.0
2014-Apr-20 23:31N 39°10' E 009°06'0 0.0
2014-Apr-20 22:31N 39°10' E 009°06'0 0.0
2014-Apr-20 21:31N 39°10' E 009°06'0 0.0
2014-Apr-20 20:31N 39°11' E 009°06'0 0.0
2014-Apr-20 19:31N 39°11' E 009°06'0 0.0
2014-Apr-20 18:31N 39°11' E 009°06'0 0.0
2014-Apr-20 17:31N 39°11' E 009°06'0 0.0
2014-Apr-20 16:31N 39°11' E 009°06'0 0.0
2014-Apr-20 15:31N 39°11' E 009°06'0 0.2
2014-Apr-20 14:33N 39°10' E 009°06'1110.6
2014-Apr-20 13:33N 39°05' E 009°17'1212.1
2014-Apr-20 12:32N 38°58' E 009°31'20511.8
2014-Apr-19 19:08N 40°27' E 013°30'711.9
2014-Apr-19 18:33N 40°30' E 013°38'1211.8
2014-Apr-19 17:33N 40°35' E 013°52'1111.4
2014-Apr-19 16:33N 40°41' E 014°05'1211.5
2014-Apr-19 15:33N 40°49' E 014°16'2 1.3
2014-Apr-19 14:16N 40°50' E 014°17'0 0.0
2014-Apr-19 13:19N 40°50' E 014°17'0 0.0
2014-Apr-19 12:19N 40°50' E 014°17'0 0.0
2014-Apr-19 11:28N 40°50' E 014°17'0 0.0
2014-Apr-19 10:28N 40°50' E 014°17'4 4.4
2014-Apr-19 09:33N 40°46' E 014°16'1212.3
2014-Apr-19 08:33N 40°35' E 014°11'1111.4
2014-Apr-19 07:33N 40°24' E 014°15'14512.0
2014-Apr-18 19:30N 38°15' E 015°40'  
2014-Apr-16 01:33N 36°48' E 023°36'2711.8
2014-Apr-15 23:17N 37°08' E 023°57'2311.7
2014-Apr-15 21:18N 37°26' E 024°15'1011.3
2014-Apr-15 20:27N 37°34' E 024°23'1111.7
2014-Apr-15 19:29N 37°43' E 024°30'1212.4
2014-Apr-15 18:32N 37°54' E 024°35'  
2014-Apr-12 21:33N 37°39' E 023°44'1111.4
2014-Apr-12 20:33N 37°48' E 023°37'9 8.6
2014-Apr-12 19:29N 37°57' E 023°36'0 0.0
2014-Apr-12 18:29N 37°57' E 023°36'0 0.0
2014-Apr-12 17:29N 37°57' E 023°36'0 0.0
2014-Apr-12 16:29N 37°57' E 023°36'0 0.0
2014-Apr-12 15:29N 37°57' E 023°36'0 0.0
2014-Apr-12 14:29N 37°57' E 023°36'0 0.0
2014-Apr-12 13:29N 37°57' E 023°36'0 0.0
2014-Apr-12 12:33N 37°57' E 023°36'  

Dump ship's entire track history

sailing weather and tide predictions

Green Fast — ZDHA9 — position and weather